Time;durP1;ratioP1;P1;durP2;ratioP2;P2;SDS_P1;SDS_P2;PMS_P1;PMS_P2;Temp;Humidity;BMP_temperature;BMP_pressure;BME280_temperature;BME280_humidity;BME280_pressure;Samples;Min_cycle;Max_cycle;Signal;HPM_P1;HPM_P2
2023/09/27 00:01:19;;;;;;;3.80;2.27;;;;;;;19.14;67.43;100742.88;4977948;28;20453;-71
2023/09/27 00:03:44;;;;;;;4.50;2.00;;;;;;;19.14;67.35;100740.03;4956541;28;20253;-71
2023/09/27 00:06:10;;;;;;;3.97;2.00;;;;;;;19.14;67.61;100755.19;4991305;28;20204;-72
2023/09/27 00:08:35;;;;;;;3.47;2.10;;;;;;;19.13;67.40;100753.53;4973994;28;20216;-71
2023/09/27 00:11:02;;;;;;;4.87;1.90;;;;;;;19.13;67.54;100756.38;4974554;28;20216;-71
2023/09/27 00:13:28;;;;;;;3.70;2.03;;;;;;;19.14;67.42;100755.19;4974091;28;20263;-71
2023/09/27 00:15:53;;;;;;;3.57;2.20;;;;;;;19.13;67.45;100770.69;4983522;28;20476;-71
2023/09/27 00:18:19;;;;;;;2.60;1.73;;;;;;;19.14;67.46;100771.50;4974869;28;20181;-71
2023/09/27 00:20:44;;;;;;;3.17;2.13;;;;;;;19.13;67.45;100770.69;4977776;28;20637;-71
2023/09/27 00:23:10;;;;;;;3.50;2.03;;;;;;;19.13;67.63;100769.84;5009972;28;20675;-71
2023/09/27 00:25:36;;;;;;;2.60;1.70;;;;;;;19.13;67.26;100770.69;5010671;28;20653;-71
2023/09/27 00:28:01;;;;;;;3.23;2.00;;;;;;;19.12;67.41;100760.44;4998501;28;20169;-71
2023/09/27 00:30:27;;;;;;;3.93;2.00;;;;;;;19.12;67.32;100763.28;4981669;28;20675;-71
2023/09/27 00:32:53;;;;;;;3.40;2.00;;;;;;;19.12;67.54;100763.28;5010426;28;20165;-71
2023/09/27 00:35:19;;;;;;;2.83;1.90;;;;;;;19.12;67.47;100748.97;5011240;28;20168;-71
2023/09/27 00:37:46;;;;;;;4.00;2.27;;;;;;;19.12;67.61;100751.84;4987402;28;20213;-71
2023/09/27 00:40:13;;;;;;;2.93;1.80;;;;;;;19.12;67.57;100748.97;5009615;28;20452;-71
2023/09/27 00:42:38;;;;;;;3.33;2.43;;;;;;;19.13;67.50;100755.53;4986553;28;21044;-71
2023/09/27 00:45:05;;;;;;;3.43;2.00;;;;;;;19.12;67.31;100751.84;4974752;28;20456;-71
2023/09/27 00:47:31;;;;;;;3.27;1.90;;;;;;;19.12;67.32;100754.69;4992129;28;20731;-71
2023/09/27 00:49:56;;;;;;;2.80;1.53;;;;;;;19.12;67.57;100760.44;4992714;28;20483;-71
2023/09/27 00:52:22;;;;;;;3.10;1.90;;;;;;;19.12;67.54;100748.16;4995541;28;20192;-71
2023/09/27 00:54:47;;;;;;;2.20;1.50;;;;;;;19.12;67.41;100751.03;5014845;28;20173;-71
2023/09/27 00:57:13;;;;;;;2.80;1.70;;;;;;;19.12;67.70;100751.84;4981373;28;20649;-71
2023/09/27 00:59:38;;;;;;;2.73;1.60;;;;;;;19.11;67.34;100753.03;4999059;28;20177;-71
2023/09/27 01:02:04;;;;;;;3.93;2.00;;;;;;;19.11;67.26;100755.91;5014745;28;20180;-71
2023/09/27 01:04:29;;;;;;;2.70;1.67;;;;;;;19.12;67.45;100748.16;5011428;28;20191;-71
2023/09/27 01:06:55;;;;;;;3.20;1.93;;;;;;;19.12;67.29;100751.84;5015540;28;20247;-71
2023/09/27 01:09:20;;;;;;;2.43;1.67;;;;;;;19.11;67.52;100755.91;4981915;28;20337;-71
2023/09/27 01:11:48;;;;;;;4.10;1.70;;;;;;;19.11;67.38;100758.78;4980472;28;20205;-71
2023/09/27 01:14:14;;;;;;;3.40;1.63;;;;;;;19.11;67.37;100758.78;4981393;28;20586;-71
2023/09/27 01:16:40;;;;;;;2.77;1.73;;;;;;;19.12;67.33;100757.56;5015034;28;20460;-71
2023/09/27 01:19:05;;;;;;;2.53;1.77;;;;;;;19.11;67.57;100770.22;4997609;28;20177;-71
2023/09/27 01:21:31;;;;;;;3.30;2.17;;;;;;;19.11;67.26;100773.06;4996995;28;20705;-71
2023/09/27 01:23:56;;;;;;;2.97;1.83;;;;;;;19.10;67.43;100776.31;5014986;28;20919;-71
2023/09/27 01:26:22;;;;;;;2.10;1.50;;;;;;;19.12;67.61;100759.63;4980288;28;20471;-71
2023/09/27 01:28:47;;;;;;;3.50;1.60;;;;;;;19.10;67.39;100747.69;4961195;28;20185;-69
2023/09/27 01:31:13;;;;;;;4.97;2.10;;;;;;;19.10;67.18;100742.81;4990930;28;20196;-69
2023/09/27 01:33:39;;;;;;;4.27;1.80;;;;;;;19.10;67.22;100745.66;4992107;28;20180;-69
2023/09/27 01:36:05;;;;;;;2.30;1.60;;;;;;;19.10;67.40;100736.25;4976251;28;20176;-69
2023/09/27 01:38:31;;;;;;;3.30;1.57;;;;;;;19.11;67.10;100741.59;4976580;28;20438;-68
2023/09/27 01:40:57;;;;;;;3.73;1.70;;;;;;;19.10;67.36;100733.38;5002338;28;20965;-69
2023/09/27 01:43:22;;;;;;;2.63;1.60;;;;;;;19.10;67.11;100739.94;4977588;28;20192;-68
2023/09/27 01:45:48;;;;;;;2.53;1.40;;;;;;;19.09;67.49;100735.44;5004812;28;21281;-69
2023/09/27 01:48:13;;;;;;;3.13;2.03;;;;;;;19.10;67.39;100745.66;4974429;28;20205;-68
2023/09/27 01:50:39;;;;;;;2.87;2.10;;;;;;;19.09;67.29;100746.88;4976996;28;20249;-68
2023/09/27 01:53:05;;;;;;;3.07;1.70;;;;;;;19.10;67.55;100748.53;4977868;28;20238;-69
2023/09/27 01:55:31;;;;;;;3.67;2.10;;;;;;;19.10;67.54;100745.66;4996074;28;20217;-69
2023/09/27 01:57:56;;;;;;;2.60;1.80;;;;;;;19.09;67.54;100748.91;4991615;28;20412;-68
2023/09/27 02:00:22;;;;;;;2.77;1.70;;;;;;;19.09;67.32;100741.16;4998965;28;20181;-68
2023/09/27 02:02:48;;;;;;;3.40;2.00;;;;;;;19.08;67.39;100739.50;4993645;28;20184;-69
2023/09/27 02:05:14;;;;;;;3.03;1.87;;;;;;;19.09;67.10;100744.03;4993523;28;20216;-69
2023/09/27 02:07:39;;;;;;;3.47;1.93;;;;;;;19.09;67.31;100746.88;4976789;28;20474;-68
2023/09/27 02:10:06;;;;;;;3.20;1.80;;;;;;;19.09;67.38;100744.03;4960241;28;20198;-68
2023/09/27 02:12:31;;;;;;;3.30;1.70;;;;;;;19.09;67.21;100738.28;5007444;28;20180;-68
2023/09/27 02:14:57;;;;;;;3.50;1.97;;;;;;;19.09;67.16;100735.44;4994311;28;20416;-69
2023/09/27 02:17:22;;;;;;;3.07;1.43;;;;;;;19.09;67.48;100723.97;5008919;28;20221;-68
2023/09/27 02:19:48;;;;;;;2.60;2.00;;;;;;;19.08;67.44;100716.59;4976822;28;20570;-69
2023/09/27 02:22:13;;;;;;;2.60;1.73;;;;;;;19.07;66.92;100714.13;4958680;28;20634;-69
2023/09/27 02:24:39;;;;;;;2.60;1.80;;;;;;;19.09;67.30;100711.69;4958908;28;20529;-69
2023/09/27 02:27:05;;;;;;;2.57;1.73;;;;;;;19.07;67.08;100709.19;4977869;28;20258;-69
2023/09/27 02:29:30;;;;;;;2.17;1.60;;;;;;;19.08;67.05;100704.31;4992103;28;20807;-68
2023/09/27 02:31:56;;;;;;;2.90;1.77;;;;;;;19.08;66.90;100710.03;4978505;28;20552;-68
2023/09/27 02:34:21;;;;;;;2.93;1.70;;;;;;;19.07;66.88;100720.66;4976605;28;20640;-69
2023/09/27 02:36:47;;;;;;;2.67;1.60;;;;;;;19.08;67.36;100728.06;4976737;28;20177;-69
2023/09/27 02:39:12;;;;;;;2.77;1.90;;;;;;;19.08;66.85;100725.19;4975037;28;20170;-71
2023/09/27 02:41:38;;;;;;;2.50;1.67;;;;;;;19.08;67.60;100736.66;4986851;28;20193;-71
2023/09/27 02:44:03;;;;;;;2.57;1.60;;;;;;;19.08;67.34;100732.94;4994732;28;20182;-71
2023/09/27 02:46:32;;;;;;;2.60;1.50;;;;;;;19.07;67.45;100728.44;4978149;28;20209;-71
2023/09/27 02:48:57;;;;;;;2.53;1.30;;;;;;;19.07;67.31;100734.97;4963514;28;20165;-71
2023/09/27 02:51:23;;;;;;;2.33;1.53;;;;;;;19.07;67.27;100745.59;4980101;28;20458;-71
2023/09/27 02:53:49;;;;;;;2.80;1.70;;;;;;;19.07;67.43;100745.59;4996830;28;20181;-71
2023/09/27 02:56:14;;;;;;;2.70;1.90;;;;;;;19.07;67.32;100752.13;4980024;28;20204;-71
2023/09/27 02:58:39;;;;;;;4.13;1.90;;;;;;;19.06;67.33;100753.34;5013164;28;20169;-71
2023/09/27 03:01:05;;;;;;;2.77;1.80;;;;;;;19.06;67.24;100761.94;5008605;28;20689;-71
2023/09/27 03:03:31;;;;;;;2.93;2.00;;;;;;;19.07;67.27;100759.91;5009470;28;20220;-71
2023/09/27 03:05:58;;;;;;;2.97;1.77;;;;;;;19.07;66.98;100765.63;4993436;28;20579;-71
2023/09/27 03:08:24;;;;;;;2.90;1.63;;;;;;;19.07;67.28;100771.34;4975694;28;20181;-71
2023/09/27 03:10:49;;;;;;;3.57;1.57;;;;;;;19.07;67.39;100765.63;4984576;28;20461;-71
2023/09/27 03:13:15;;;;;;;3.60;2.20;;;;;;;19.06;67.03;100773.38;4994251;28;20424;-71
2023/09/27 03:15:41;;;;;;;3.07;1.67;;;;;;;19.07;67.30;100777.06;5007889;28;20621;-71
2023/09/27 03:18:06;;;;;;;2.73;1.77;;;;;;;19.06;67.14;100775.41;4943299;28;20443;-71
2023/09/27 03:20:32;;;;;;;2.87;1.90;;;;;;;19.06;67.35;100776.22;4958995;28;20174;-71
2023/09/27 03:22:58;;;;;;;2.80;1.80;;;;;;;19.07;67.12;100779.94;4983664;28;20181;-71
2023/09/27 03:25:24;;;;;;;3.20;1.63;;;;;;;19.05;67.46;100788.88;4994558;28;20197;-71
2023/09/27 03:27:49;;;;;;;3.30;1.80;;;;;;;19.05;67.04;100773.75;5009587;28;20169;-71
2023/09/27 03:30:15;;;;;;;2.33;1.43;;;;;;;19.05;67.37;100777.44;4980858;28;20178;-71
2023/09/27 03:32:41;;;;;;;2.27;1.67;;;;;;;19.04;67.37;100772.94;4991026;28;20184;-71
2023/09/27 03:35:07;;;;;;;2.83;1.67;;;;;;;19.05;66.99;100774.56;4993547;28;20418;-71
2023/09/27 03:37:34;;;;;;;3.10;1.73;;;;;;;19.05;67.20;100762.28;4992666;28;20180;-71
2023/09/27 03:40:00;;;;;;;2.50;1.70;;;;;;;19.05;67.03;100771.72;4994430;28;20538;-71
2023/09/27 03:42:26;;;;;;;2.37;1.40;;;;;;;19.05;67.14;100780.31;4994687;28;20439;-71
2023/09/27 03:44:54;;;;;;;3.00;1.60;;;;;;;19.05;67.13;100786.03;5011006;28;20177;-71
2023/09/27 03:47:20;;;;;;;2.27;1.43;;;;;;;19.05;67.04;100790.91;4996277;28;20468;-71
2023/09/27 03:49:45;;;;;;;3.30;1.90;;;;;;;19.05;66.85;100793.78;5010205;28;20421;-71
2023/09/27 03:52:11;;;;;;;3.20;1.67;;;;;;;19.04;67.11;100797.84;4996082;28;20186;-71
2023/09/27 03:54:36;;;;;;;2.47;1.53;;;;;;;19.04;67.25;100798.69;4958974;28;20566;-71
2023/09/27 03:57:01;;;;;;;2.47;1.53;;;;;;;19.05;67.02;100806.06;4974622;28;20627;-71
2023/09/27 03:59:27;;;;;;;2.43;1.30;;;;;;;19.04;67.20;100800.69;4974223;28;20172;-71
2023/09/27 04:01:52;;;;;;;2.27;1.30;;;;;;;19.04;66.88;100801.53;4984151;28;20181;-71
2023/09/27 04:04:18;;;;;;;2.10;1.47;;;;;;;19.04;67.01;100804.41;5009969;28;20227;-71
2023/09/27 04:06:44;;;;;;;2.83;1.70;;;;;;;19.04;67.00;100798.69;4990646;28;20200;-71
2023/09/27 04:09:10;;;;;;;1.97;1.30;;;;;;;19.04;66.98;100803.56;4993554;28;20705;-71
2023/09/27 04:11:36;;;;;;;2.33;1.40;;;;;;;19.03;67.18;100797.03;4972443;28;20236;-71
2023/09/27 04:14:01;;;;;;;2.50;1.67;;;;;;;19.02;67.10;100798.19;4990342;28;20176;-71
2023/09/27 04:16:30;;;;;;;2.23;1.60;;;;;;;19.02;67.10;100797.41;4986204;28;20988;-71
2023/09/27 04:18:58;;;;;;;2.73;1.57;;;;;;;19.03;66.97;100810.50;4989605;28;20521;-71
2023/09/27 04:21:25;;;;;;;2.60;1.60;;;;;;;19.03;66.98;100811.34;4989500;28;20413;-71
2023/09/27 04:23:57;;;;;;;3.50;1.60;;;;;;;19.03;66.99;100822.78;4988141;28;20432;-71
2023/09/27 04:26:23;;;;;;;2.50;1.30;;;;;;;19.03;67.11;100822.78;4988167;28;20494;-71
2023/09/27 04:28:50;;;;;;;2.13;1.37;;;;;;;19.03;67.36;100824.81;4992518;28;20458;-71
2023/09/27 04:31:16;;;;;;;2.40;1.57;;;;;;;19.02;66.98;100815.38;4984629;28;20441;-71
2023/09/27 04:33:44;;;;;;;2.67;1.50;;;;;;;19.02;67.12;100812.50;4989510;28;21125;-71
2023/09/27 04:36:15;;;;;;;2.80;1.80;;;;;;;19.02;67.25;100805.97;4957075;28;20653;-71
2023/09/27 04:38:46;;;;;;;3.20;2.00;;;;;;;19.02;67.20;100794.53;4992030;28;20943;-71
2023/09/27 04:41:14;;;;;;;2.70;1.57;;;;;;;19.01;66.99;100793.69;4976008;28;20537;-71
2023/09/27 04:43:40;;;;;;;2.43;1.53;;;;;;;19.02;66.96;100791.66;4959333;28;20437;-71
2023/09/27 04:46:06;;;;;;;2.23;1.60;;;;;;;19.01;67.09;100796.56;4990947;28;20507;-71
2023/09/27 04:48:32;;;;;;;2.30;1.57;;;;;;;19.01;66.94;100799.41;5005150;28;21003;-71
2023/09/27 04:50:59;;;;;;;2.43;1.60;;;;;;;19.00;67.08;100797.75;5008264;28;20181;-71
2023/09/27 04:53:25;;;;;;;3.13;1.70;;;;;;;19.01;67.14;100805.13;4988556;28;20501;-71
2023/09/27 04:55:50;;;;;;;2.17;1.20;;;;;;;19.01;67.06;100799.41;5001558;28;20432;-71
2023/09/27 04:58:16;;;;;;;2.10;1.30;;;;;;;19.01;67.08;100799.41;4991416;28;20176;-71
2023/09/27 05:00:41;;;;;;;2.53;1.50;;;;;;;19.00;67.09;100800.63;4989762;28;20182;-71
2023/09/27 05:03:07;;;;;;;2.57;1.60;;;;;;;19.00;66.91;100800.63;4991580;28;20181;-71
2023/09/27 05:05:32;;;;;;;2.03;1.40;;;;;;;18.99;66.94;100798.97;5008313;28;20208;-71
2023/09/27 05:07:58;;;;;;;2.87;1.77;;;;;;;19.00;67.11;100800.63;5007608;28;20264;-71
2023/09/27 05:10:23;;;;;;;2.63;1.83;;;;;;;19.00;67.26;100800.63;5004791;28;20205;-71
2023/09/27 05:12:49;;;;;;;6.90;1.53;;;;;;;18.99;66.90;100801.84;5009218;28;20173;-71
2023/09/27 05:15:14;;;;;;;2.90;1.80;;;;;;;18.99;66.86;100810.41;5007160;28;20181;-71
2023/09/27 05:17:40;;;;;;;2.77;1.73;;;;;;;18.99;66.91;100807.56;4995228;28;20248;-71
2023/09/27 05:20:09;;;;;;;2.43;1.80;;;;;;;19.00;67.00;100811.22;4991045;28;20182;-71
2023/09/27 05:22:35;;;;;;;2.90;1.90;;;;;;;18.99;66.88;100807.56;4972617;28;20189;-71
2023/09/27 05:25:00;;;;;;;2.30;1.47;;;;;;;18.99;66.82;100798.13;4990370;28;20439;-71
2023/09/27 05:27:26;;;;;;;2.40;1.40;;;;;;;18.99;66.90;100807.56;5007850;28;20246;-71
2023/09/27 05:29:53;;;;;;;2.67;1.70;;;;;;;19.00;66.98;100806.34;4991221;28;20231;-71
2023/09/27 05:32:19;;;;;;;2.30;1.60;;;;;;;18.99;66.93;100809.56;4990312;28;20177;-71
2023/09/27 05:34:44;;;;;;;2.20;1.30;;;;;;;18.98;66.96;100805.91;4974585;28;20440;-71
2023/09/27 05:37:10;;;;;;;2.00;1.30;;;;;;;18.99;66.98;100801.84;5002107;28;20508;-71
2023/09/27 05:39:35;;;;;;;2.50;1.60;;;;;;;18.98;66.83;100807.91;4992720;28;20641;-71
2023/09/27 05:42:01;;;;;;;2.47;1.50;;;;;;;18.99;66.84;100809.56;5012512;28;20182;-71
2023/09/27 05:44:26;;;;;;;2.70;1.57;;;;;;;18.98;66.79;100811.63;4994342;28;20216;-71
2023/09/27 05:46:51;;;;;;;2.30;1.50;;;;;;;18.98;66.90;100820.22;4993804;28;20721;-71
2023/09/27 05:49:18;;;;;;;2.80;1.70;;;;;;;18.98;67.00;100814.47;4944484;28;20252;-71
2023/09/27 05:51:44;;;;;;;2.03;1.50;;;;;;;18.97;66.94;100818.53;4954934;28;20188;-71
2023/09/27 05:54:10;;;;;;;1.87;1.20;;;;;;;18.98;67.24;100823.06;5012158;28;20412;-71
2023/09/27 05:56:37;;;;;;;2.30;1.40;;;;;;;18.98;66.90;100831.66;4979854;28;20245;-71
2023/09/27 05:59:08;;;;;;;3.07;1.70;;;;;;;18.98;66.99;100823.06;4995625;28;20444;-71
2023/09/27 06:01:35;;;;;;;2.30;1.33;;;;;;;18.97;67.01;100824.25;4978875;28;20461;-71
2023/09/27 06:04:01;;;;;;;2.20;1.20;;;;;;;18.97;66.83;100818.53;4976074;28;20401;-71
2023/09/27 06:06:27;;;;;;;2.10;1.30;;;;;;;18.98;66.97;100825.09;4983143;28;20467;-71
2023/09/27 06:08:52;;;;;;;2.87;1.53;;;;;;;18.96;66.84;100819.72;5007594;28;20844;-68
2023/09/27 06:11:18;;;;;;;1.80;1.30;;;;;;;18.97;66.85;100824.25;4976516;28;20606;-68
2023/09/27 06:13:44;;;;;;;3.00;1.70;;;;;;;18.97;66.75;100823.44;4976247;28;20553;-68
2023/09/27 06:16:13;;;;;;;2.67;1.40;;;;;;;18.97;66.79;100821.38;4983238;28;20283;-68
2023/09/27 06:18:39;;;;;;;2.40;1.50;;;;;;;18.97;66.91;100818.53;4989028;28;20433;-68
2023/09/27 06:21:04;;;;;;;2.00;1.27;;;;;;;18.97;66.63;100824.25;4992908;28;20907;-69
2023/09/27 06:23:30;;;;;;;2.40;1.60;;;;;;;18.97;66.72;100824.25;4959354;28;20189;-69
2023/09/27 06:25:55;;;;;;;2.83;1.70;;;;;;;18.96;66.56;100822.59;5008334;28;20193;-68
2023/09/27 06:28:21;;;;;;;2.20;1.30;;;;;;;18.97;66.75;100821.38;4992457;28;20482;-68
2023/09/27 06:30:46;;;;;;;2.23;1.23;;;;;;;18.97;67.03;100826.28;4991426;28;20688;-68
2023/09/27 06:33:12;;;;;;;2.40;1.40;;;;;;;18.96;66.82;100825.44;4991438;28;20177;-68
2023/09/27 06:35:38;;;;;;;2.00;1.30;;;;;;;18.96;66.78;100830.38;4960275;28;20178;-68
2023/09/27 06:38:03;;;;;;;2.30;1.40;;;;;;;18.96;66.76;100821.78;4990025;28;20185;-68
2023/09/27 06:40:29;;;;;;;1.93;1.20;;;;;;;18.95;67.06;100817.22;5007368;28;20181;-68
2023/09/27 06:42:54;;;;;;;2.00;1.30;;;;;;;18.96;66.84;100827.50;5009964;28;20200;-68
2023/09/27 06:45:20;;;;;;;2.30;1.43;;;;;;;18.96;66.77;100830.38;5006462;28;20209;-69
2023/09/27 06:47:45;;;;;;;2.30;1.50;;;;;;;18.96;66.64;100821.78;4990310;28;20189;-68
2023/09/27 06:50:17;;;;;;;2.57;1.40;;;;;;;18.96;66.67;100828.31;4976153;28;20174;-68
2023/09/27 06:52:45;;;;;;;3.20;1.40;;;;;;;18.96;66.83;100827.50;4978932;28;20569;-68
2023/09/27 06:55:10;;;;;;;1.90;1.10;;;;;;;18.95;66.89;100820.94;4993689;28;20412;-68
2023/09/27 06:57:39;;;;;;;2.10;1.20;;;;;;;18.95;66.75;100818.06;4967773;28;20432;-69
2023/09/27 07:00:48;;;;;;;2.20;1.30;;;;;;;18.95;66.84;100818.06;4973999;28;20188;-69
2023/09/27 07:02:54;;;;;;;2.50;1.50;;;;;;;18.95;66.78;100814.38;4984736;28;20437;-69
2023/09/27 07:05:22;;;;;;;2.17;1.30;;;;;;;18.93;66.81;100811.91;4975500;28;20472;-69
2023/09/27 07:07:49;;;;;;;2.50;1.40;;;;;;;18.95;66.89;100820.09;4957904;28;20182;-68
2023/09/27 07:10:14;;;;;;;2.47;1.37;;;;;;;18.94;66.98;100827.88;4996062;28;20940;-68
2023/09/27 07:12:41;;;;;;;2.53;1.40;;;;;;;18.94;66.93;100813.56;5005054;28;20502;-68
2023/09/27 07:15:09;;;;;;;1.90;1.40;;;;;;;18.95;66.80;100823.81;4991075;28;20230;-68
2023/09/27 07:17:36;;;;;;;2.10;1.30;;;;;;;18.95;67.23;100812.34;4973605;28;20465;-68
2023/09/27 07:20:09;;;;;;;2.23;1.30;;;;;;;18.95;66.48;100820.09;4957923;28;20514;-71
2023/09/27 07:22:36;;;;;;;2.00;1.20;;;;;;;18.95;66.94;100812.34;4988491;28;20430;-71
2023/09/27 07:25:03;;;;;;;2.20;1.20;;;;;;;18.95;67.07;100826.66;4991288;28;20420;-71
2023/09/27 07:27:28;;;;;;;2.30;1.53;;;;;;;18.94;66.36;100827.88;4992760;28;20421;-71
2023/09/27 07:29:54;;;;;;;2.20;1.30;;;;;;;18.95;66.73;100829.53;4992364;28;20951;-71
2023/09/27 07:32:19;;;;;;;1.90;1.20;;;;;;;18.96;66.85;100830.38;4972323;28;20197;-71
2023/09/27 07:34:45;;;;;;;2.60;1.43;;;;;;;18.95;67.03;100822.94;4992107;28;20621;-71
2023/09/27 07:37:11;;;;;;;2.50;1.40;;;;;;;18.95;66.71;100832.38;4988575;28;20204;-71
2023/09/27 07:39:37;;;;;;;2.90;1.70;;;;;;;18.95;66.93;100837.25;4972898;28;21294;-71
2023/09/27 07:42:03;;;;;;;2.10;1.40;;;;;;;18.96;67.10;100839.75;4999549;28;20182;-71
2023/09/27 07:44:32;;;;;;;2.70;1.73;;;;;;;18.95;66.96;100834.41;4972189;28;20754;-71
2023/09/27 07:46:57;;;;;;;2.70;1.43;;;;;;;18.95;66.98;100832.38;4989050;28;20218;-71
2023/09/27 07:49:23;;;;;;;2.37;1.50;;;;;;;18.94;66.86;100825.00;4992258;28;20508;-71
2023/09/27 07:51:49;;;;;;;2.00;1.40;;;;;;;18.95;66.93;100826.66;4991950;28;20228;-71
2023/09/27 07:54:15;;;;;;;2.70;1.50;;;;;;;18.95;66.92;100823.81;5001464;28;20676;-71
2023/09/27 07:56:40;;;;;;;2.13;1.30;;;;;;;18.94;67.05;100825.00;4991985;28;20432;-71
2023/09/27 07:59:09;;;;;;;2.30;1.60;;;;;;;18.95;66.80;100829.53;4968322;28;20182;-71
2023/09/27 08:01:35;;;;;;;2.93;1.47;;;;;;;18.96;66.86;100830.38;4979791;28;20213;-71
2023/09/27 08:04:07;;;;;;;2.20;1.43;;;;;;;18.95;66.77;100829.53;4990593;28;20483;-71
2023/09/27 08:06:35;;;;;;;2.97;1.50;;;;;;;18.96;67.07;100821.78;4986870;28;20460;-71
2023/09/27 08:09:01;;;;;;;2.20;1.33;;;;;;;18.95;66.58;100823.81;4969420;28;20429;-71
2023/09/27 08:11:27;;;;;;;2.80;1.60;;;;;;;18.95;66.88;100822.94;4983177;28;20522;-71
2023/09/27 08:13:53;;;;;;;2.50;1.47;;;;;;;18.96;66.90;100831.19;4991990;28;20194;-71
2023/09/27 08:16:19;;;;;;;2.20;1.30;;;;;;;18.95;66.73;100826.66;4971859;28;20476;-71
2023/09/27 08:18:44;;;;;;;2.50;1.37;;;;;;;18.95;67.12;100826.66;5006655;28;20425;-71
2023/09/27 08:21:10;;;;;;;2.37;1.30;;;;;;;18.95;66.96;100818.06;4975320;28;20170;-71
2023/09/27 08:23:35;;;;;;;2.10;1.40;;;;;;;18.94;67.07;100819.28;4990227;28;20190;-71
2023/09/27 08:26:00;;;;;;;2.53;1.33;;;;;;;18.96;67.04;100816.06;4975075;28;20259;-71
2023/09/27 08:28:28;;;;;;;2.63;1.53;;;;;;;18.95;66.85;100815.22;4973838;28;20186;-68
2023/09/27 08:30:58;;;;;;;2.57;1.37;;;;;;;18.95;66.92;100805.78;4960302;28;20201;-68
2023/09/27 08:33:23;;;;;;;3.30;1.33;;;;;;;18.95;66.64;100814.38;4987816;28;20463;-68
2023/09/27 08:35:52;;;;;;;2.10;1.33;;;;;;;18.95;67.04;100815.22;4983231;28;20890;-69
2023/09/27 08:38:18;;;;;;;2.00;1.30;;;;;;;18.95;66.87;100812.34;4983218;28;20254;-69
2023/09/27 08:40:44;;;;;;;2.50;1.60;;;;;;;18.95;66.77;100818.06;5000973;28;20444;-69
2023/09/27 08:43:10;;;;;;;2.50;1.30;;;;;;;18.95;67.08;100815.22;4986513;28;20826;-68
2023/09/27 08:45:38;;;;;;;1.90;1.10;;;;;;;18.95;66.97;100818.06;4986463;28;20472;-68
2023/09/27 08:48:04;;;;;;;2.40;1.40;;;;;;;18.95;66.98;100803.78;4967818;28;20193;-69
2023/09/27 08:50:29;;;;;;;2.17;1.27;;;;;;;18.95;66.90;100806.63;4971171;28;20433;-69
2023/09/27 08:52:55;;;;;;;2.23;1.50;;;;;;;18.96;66.82;100802.56;4985740;28;20440;-69
2023/09/27 08:55:20;;;;;;;1.90;1.10;;;;;;;18.96;66.77;100805.41;4999876;28;20186;-68
2023/09/27 08:57:47;;;;;;;2.03;1.30;;;;;;;18.96;67.06;100811.16;5004331;28;20658;-69
2023/09/27 09:00:20;;;;;;;2.40;1.30;;;;;;;18.96;66.74;100796.03;4980754;28;20191;-69
2023/09/27 09:02:49;;;;;;;2.47;1.40;;;;;;;18.95;66.97;100806.63;4968030;28;20406;-69
2023/09/27 09:05:16;;;;;;;2.63;1.50;;;;;;;18.95;66.65;100795.19;4974146;28;20758;-68
2023/09/27 09:07:41;;;;;;;2.10;1.23;;;;;;;18.97;66.96;100798.50;4981541;28;20436;-68
2023/09/27 09:10:16;;;;;;;2.00;1.20;;;;;;;18.97;66.84;100794.81;4984803;28;21052;-69
2023/09/27 09:12:47;;;;;;;2.20;1.30;;;;;;;18.95;66.63;100782.91;4969439;28;20847;-68
2023/09/27 09:15:29;;;;;;;2.10;1.20;;;;;;;18.95;66.67;100765.72;4987825;28;20497;-68
2023/09/27 09:17:57;;;;;;;3.40;1.40;;;;;;;18.95;66.89;100785.75;4974520;28;20472;-68
2023/09/27 09:20:28;;;;;;;1.97;1.23;;;;;;;18.93;66.66;100780.44;4973053;28;20548;-68
2023/09/27 09:22:54;;;;;;;2.07;1.13;;;;;;;18.97;66.61;100777.66;4976305;28;20429;-68
2023/09/27 09:25:23;;;;;;;2.40;1.20;;;;;;;18.96;66.92;100781.72;4989769;28;20531;-68
2023/09/27 09:28:02;;;;;;;2.03;1.20;;;;;;;18.96;66.93;100778.84;4971501;28;20421;-68
2023/09/27 09:30:38;;;;;;;2.10;1.30;;;;;;;18.96;66.90;100771.09;5006615;28;20412;-68
2023/09/27 09:33:29;;;;;;;2.13;1.13;;;;;;;18.96;66.68;100764.56;4981717;28;21091;-68
2023/09/27 09:35:56;;;;;;;1.80;1.10;;;;;;;18.96;66.91;100759.63;4990108;28;20966;-68
2023/09/27 09:38:30;;;;;;;2.30;1.20;;;;;;;18.96;66.57;100747.38;5005312;28;21229;-71
2023/09/27 09:40:56;;;;;;;2.70;1.63;;;;;;;18.96;66.87;100745.34;4974994;28;20440;-71
2023/09/27 09:43:34;;;;;;;2.70;1.30;;;;;;;18.97;66.91;100746.19;4978506;28;20428;-71
2023/09/27 09:46:00;;;;;;;1.73;1.03;;;;;;;18.97;66.73;100738.41;4977263;28;20479;-72
2023/09/27 09:48:27;;;;;;;2.20;1.30;;;;;;;18.97;66.80;100738.41;4973984;28;20468;-72
2023/09/27 09:50:56;;;;;;;2.10;1.20;;;;;;;18.98;66.70;100739.25;4960202;28;20412;-72
2023/09/27 09:53:21;;;;;;;2.20;1.20;;;;;;;18.97;66.79;100726.97;4973437;28;20580;-71
2023/09/27 09:55:49;;;;;;;2.13;1.30;;;;;;;18.98;66.93;100739.25;5008202;28;20884;-72
2023/09/27 09:58:35;;;;;;;2.53;1.20;;;;;;;18.98;66.90;100734.38;4989491;28;20958;-71
2023/09/27 10:01:01;;;;;;;2.37;1.40;;;;;;;18.98;66.72;100725.78;4991524;28;20460;-71
2023/09/27 10:03:30;;;;;;;2.07;1.17;;;;;;;18.97;67.23;100732.69;4975329;28;20988;-72
2023/09/27 10:05:56;;;;;;;2.37;1.10;;;;;;;18.98;66.92;100727.81;4975250;28;20193;-71
2023/09/27 10:08:23;;;;;;;2.17;1.30;;;;;;;18.99;66.94;100733.16;4971236;28;20441;-72
2023/09/27 10:10:48;;;;;;;2.20;1.40;;;;;;;18.98;66.51;100722.91;4980479;28;20202;-72
2023/09/27 10:13:14;;;;;;;2.70;1.50;;;;;;;18.97;67.11;100724.09;4954772;28;21239;-72
2023/09/27 10:15:40;;;;;;;2.10;1.23;;;;;;;18.99;66.86;100718.84;4994164;28;20174;-72
2023/09/27 10:18:21;;;;;;;1.80;1.13;;;;;;;18.99;67.11;100718.84;4995317;28;20185;-71
2023/09/27 10:21:03;;;;;;;2.17;1.13;;;;;;;18.99;66.83;100718.84;5010609;28;20427;-72
2023/09/27 10:23:35;;;;;;;2.43;1.43;;;;;;;18.99;66.93;100716.00;5010720;28;20482;-73
2023/09/27 10:26:20;;;;;;;2.13;1.20;;;;;;;19.00;67.01;100716.81;4992682;28;20861;-72
2023/09/27 10:31:38;;;;;;;1.73;1.00;;;;;;;18.99;67.11;100716.00;4983031;28;20444;-72
2023/09/27 10:34:30;;;;;;;2.67;1.10;;;;;;;19.00;66.83;100709.06;4990273;28;20455;-72
2023/09/27 10:36:57;;;;;;;2.30;1.43;;;;;;;19.00;67.11;100709.06;5001551;28;20428;-72
2023/09/27 10:39:23;;;;;;;2.20;1.20;;;;;;;19.00;67.15;100700.47;4992725;28;20439;-72
2023/09/27 10:41:49;;;;;;;2.20;1.40;;;;;;;19.00;66.89;100706.19;4971454;28;20429;-72
2023/09/27 10:44:27;;;;;;;2.30;1.20;;;;;;;19.01;67.21;100699.25;4976825;28;20640;-71
2023/09/27 10:46:52;;;;;;;2.27;1.30;;;;;;;19.01;67.14;100696.41;5002828;28;20213;-71
2023/09/27 10:49:22;;;;;;;2.07;1.20;;;;;;;19.02;66.74;100689.47;4993160;28;20486;-69
2023/09/27 10:51:47;;;;;;;2.30;1.20;;;;;;;19.03;66.89;100690.31;5007793;28;21134;-68
2023/09/27 10:54:12;;;;;;;1.87;1.07;;;;;;;19.02;67.09;100680.88;4987944;28;20439;-68
2023/09/27 10:56:41;;;;;;;2.00;1.20;;;;;;;19.04;66.91;100681.34;4989256;28;20180;-68
2023/09/27 10:59:07;;;;;;;2.00;1.10;;;;;;;19.03;67.05;100678.88;4985926;28;20173;-69
2023/09/27 11:01:33;;;;;;;2.30;1.20;;;;;;;19.06;66.93;100678.13;5005291;28;20439;-69
2023/09/27 11:04:02;;;;;;;3.63;1.60;;;;;;;19.04;66.88;100675.63;4975837;28;20157;-68
2023/09/27 11:06:28;;;;;;;2.10;1.20;;;;;;;19.06;66.92;100672.41;4974978;28;20467;-68
2023/09/27 11:09:07;;;;;;;2.23;1.20;;;;;;;19.07;66.59;100663.41;4991111;28;20506;-68
2023/09/27 11:11:35;;;;;;;2.13;1.20;;;;;;;19.08;66.84;100662.25;5000750;28;20440;-68
2023/09/27 11:14:01;;;;;;;2.03;1.00;;;;;;;19.08;66.77;100664.25;4990408;28;20954;-68
2023/09/27 11:16:26;;;;;;;2.17;1.10;;;;;;;19.09;66.79;100663.88;5009469;28;20456;-69
2023/09/27 11:18:52;;;;;;;2.17;1.43;;;;;;;19.09;66.65;100654.47;5009225;28;20621;-68
2023/09/27 11:21:19;;;;;;;1.93;1.20;;;;;;;19.08;66.76;100647.94;4969929;28;20193;-68
2023/09/27 11:23:57;;;;;;;1.80;1.03;;;;;;;19.08;66.84;100642.19;5004964;28;20212;-68
2023/09/27 11:26:24;;;;;;;2.10;1.10;;;;;;;19.07;67.03;100642.56;5009924;28;20459;-68